createdAt,value
2022-08-12T00:00:33.965Z,101797.28
2022-08-12T00:03:20.878Z,101788.03
2022-08-12T00:06:09.371Z,101795.66
2022-08-12T00:08:57.630Z,101790.19
2022-08-12T00:11:45.555Z,101804.59
2022-08-12T00:14:32.396Z,101799.44
2022-08-12T00:17:18.338Z,101802.44
2022-08-12T00:20:04.753Z,101795.13
2022-08-12T00:22:59.426Z,101800.28
2022-08-12T00:26:22.446Z,101804.91
2022-08-12T00:29:12.327Z,101799.97
2022-08-12T00:32:00.200Z,101809.47
2022-08-12T00:34:49.313Z,101799.69
2022-08-12T00:37:38.097Z,101805.69
2022-08-12T00:40:26.865Z,101802.94
2022-08-12T00:42:54.199Z,101808.38
2022-08-12T00:45:22.220Z,101806.22
2022-08-12T00:47:52.112Z,101809.19
2022-08-12T00:50:21.847Z,101798.88
2022-08-12T00:52:52.708Z,101803.22
2022-08-12T00:55:21.099Z,101814.59
2022-08-12T00:57:50.973Z,101813.25
2022-08-12T01:00:24.461Z,101816.72
2022-08-12T01:02:58.175Z,101825.41
2022-08-12T01:05:45.102Z,101819.69
2022-08-12T01:08:30.742Z,101824.56
2022-08-12T01:11:17.057Z,101811.22
2022-08-12T01:13:48.667Z,101812.31
2022-08-12T01:16:22.799Z,101815.03
2022-08-12T01:18:53.170Z,101816.38
2022-08-12T01:22:09.326Z,101817.19
2022-08-12T01:24:49.883Z,101800.00
2022-08-12T01:27:20.042Z,101808.97
2022-08-12T01:29:49.411Z,101811.69
2022-08-12T01:32:19.257Z,101814.38
2022-08-12T01:35:03.239Z,101813.28
2022-08-12T01:37:37.117Z,101817.63
2022-08-12T01:40:35.139Z,101814.34
2022-08-12T01:42:59.450Z,101818.94
2022-08-12T01:45:29.575Z,101818.66
2022-08-12T01:48:29.390Z,101819.72
2022-08-12T01:52:21.160Z,101811.03
2022-08-12T01:54:38.568Z,101820.22
2022-08-12T01:57:59.700Z,101819.91
2022-08-12T02:00:55.278Z,101829.63
2022-08-12T02:04:09.836Z,101825.00
2022-08-12T02:07:15.701Z,101819.53
2022-08-12T02:10:50.749Z,101817.31
2022-08-12T02:13:50.063Z,101811.88
2022-08-12T02:17:20.771Z,101809.69
2022-08-12T02:20:35.222Z,101813.19
2022-08-12T02:23:19.594Z,101803.94
2022-08-12T02:25:47.649Z,101807.47
2022-08-12T02:28:14.723Z,101811.50
2022-08-12T02:30:42.713Z,101806.34
2022-08-12T02:33:11.560Z,101808.47
2022-08-12T02:35:39.929Z,101802.50
2022-08-12T02:38:11.510Z,101808.75
2022-08-12T02:40:44.677Z,101809.81
2022-08-12T02:43:22.060Z,101813.88
2022-08-12T02:46:10.461Z,101801.91
2022-08-12T02:48:55.458Z,101803.25
2022-08-12T02:51:35.948Z,101806.78
2022-08-12T02:54:06.483Z,101794.81
2022-08-12T02:56:40.621Z,101804.59
2022-08-12T02:59:16.501Z,101798.59
2022-08-12T03:01:54.279Z,101800.50
2022-08-12T03:04:43.830Z,101802.66
2022-08-12T03:08:00.256Z,101798.81
2022-08-12T03:10:36.948Z,101811.00
2022-08-12T03:13:08.258Z,101809.63
2022-08-12T03:15:36.613Z,101797.16
2022-08-12T03:18:27.558Z,101805.53
2022-08-12T03:20:58.566Z,101814.75
2022-08-12T03:23:30.373Z,101818.28
2022-08-12T03:26:01.399Z,101808.75
2022-08-12T03:28:50.845Z,101808.22
2022-08-12T03:31:29.881Z,101811.44
2022-08-12T03:34:11.055Z,101802.75
2022-08-12T03:36:41.033Z,101804.06
2022-08-12T03:39:16.703Z,101819.22
2022-08-12T03:42:06.169Z,101809.16
2022-08-12T03:44:59.277Z,101819.19
2022-08-12T03:48:08.446Z,101814.03
2022-08-12T03:50:56.016Z,101818.56
2022-08-12T03:53:47.692Z,101822.91
2022-08-12T03:56:33.736Z,101818.53
2022-08-12T03:59:22.512Z,101825.31
2022-08-12T04:01:57.973Z,101822.88
2022-08-12T04:04:35.451Z,101825.56
2022-08-12T04:07:08.065Z,101832.88
2022-08-12T04:09:39.316Z,101810.09
2022-08-12T04:12:26.475Z,101824.75
2022-08-12T04:14:56.913Z,101831.19
2022-08-12T04:17:26.858Z,101829.31
2022-08-12T04:19:56.529Z,101836.91
2022-08-12T04:22:31.018Z,101833.69
2022-08-12T04:25:01.628Z,101832.88
2022-08-12T04:27:32.435Z,101834.00
2022-08-12T04:30:29.991Z,101829.41
2022-08-12T04:32:49.908Z,101821.84
2022-08-12T04:35:18.016Z,101834.34
2022-08-12T04:37:59.194Z,101843.59
2022-08-12T04:40:31.629Z,101833.09
2022-08-12T04:43:01.081Z,101829.31
2022-08-12T04:45:30.579Z,101838.59
2022-08-12T04:47:57.618Z,101829.97
2022-08-12T04:50:34.831Z,101837.88
2022-08-12T04:53:06.876Z,101835.75
2022-08-12T04:55:38.629Z,101840.41
2022-08-12T04:58:09.566Z,101830.41
2022-08-12T05:00:38.272Z,101842.69
2022-08-12T05:03:07.392Z,101830.00
2022-08-12T05:05:36.506Z,101822.16
2022-08-12T05:08:06.838Z,101839.59
2022-08-12T05:10:35.789Z,101830.41
2022-08-12T05:13:09.569Z,101839.47
2022-08-12T05:16:00.246Z,101819.69
2022-08-12T05:18:29.360Z,101825.16
2022-08-12T05:20:59.195Z,101825.47
2022-08-12T05:23:26.749Z,101826.59
2022-08-12T05:25:56.838Z,101828.28
2022-08-12T05:28:27.294Z,101826.16
2022-08-12T05:30:55.614Z,101834.31
2022-08-12T05:33:31.546Z,101834.34
2022-08-12T05:35:58.495Z,101840.06
2022-08-12T05:38:44.139Z,101842.59
2022-08-12T05:41:19.988Z,101829.28
2022-08-12T05:43:53.587Z,101836.09
2022-08-12T05:46:23.210Z,101835.28
2022-08-12T05:48:54.167Z,101836.97
2022-08-12T05:51:24.876Z,101836.69
2022-08-12T05:54:06.645Z,101835.06
2022-08-12T05:56:36.799Z,101826.38
2022-08-12T05:59:09.268Z,101835.34
2022-08-12T06:02:09.753Z,101839.66
2022-08-12T06:04:25.346Z,101841.81
2022-08-12T06:06:53.362Z,101830.66
2022-08-12T06:09:22.727Z,101836.34
2022-08-12T06:12:04.531Z,101821.34
2022-08-12T06:14:36.673Z,101832.75
2022-08-12T06:17:05.212Z,101838.38
2022-08-12T06:20:27.893Z,101835.88
2022-08-12T06:22:19.757Z,101837.44
2022-08-12T06:24:48.373Z,101838.16
2022-08-12T06:27:17.867Z,101840.00
2022-08-12T06:30:09.806Z,101840.44
2022-08-12T06:32:32.335Z,101834.34
2022-08-12T06:35:27.087Z,101835.59
2022-08-12T06:37:57.733Z,101837.38
2022-08-12T06:40:51.878Z,101827.53
2022-08-12T06:43:18.873Z,101821.13
2022-08-12T06:45:47.697Z,101822.56
2022-08-12T06:48:15.921Z,101826.00
2022-08-12T06:50:44.440Z,101827.47
2022-08-12T06:53:12.215Z,101826.25
2022-08-12T06:55:56.752Z,101828.78
2022-08-12T06:58:32.029Z,101821.25
2022-08-12T07:01:00.322Z,101828.41
2022-08-12T07:03:28.946Z,101813.94
2022-08-12T07:06:11.804Z,101821.63
2022-08-12T07:08:39.944Z,101823.53
2022-08-12T07:11:10.227Z,101813.38
2022-08-12T07:14:02.459Z,101819.03
2022-08-12T07:16:52.327Z,101812.16
2022-08-12T07:19:21.482Z,101807.94
2022-08-12T07:21:57.941Z,101813.03
2022-08-12T07:24:29.442Z,101805.53
2022-08-12T07:26:57.298Z,101813.00
2022-08-12T07:29:26.060Z,101810.91
2022-08-12T07:32:13.324Z,101813.63
2022-08-12T07:34:43.562Z,101812.81
2022-08-12T07:37:10.898Z,101816.06
2022-08-12T07:39:51.062Z,101807.81
2022-08-12T07:42:24.978Z,101805.53
2022-08-12T07:44:53.894Z,101822.81
2022-08-12T07:47:20.911Z,101804.59
2022-08-12T07:50:04.184Z,101812.78
2022-08-12T07:52:34.655Z,101804.69
2022-08-12T07:55:03.139Z,101806.97
2022-08-12T07:57:34.419Z,101813.88
2022-08-12T08:00:06.137Z,101805.19
2022-08-12T08:02:37.137Z,101793.09
2022-08-12T08:05:06.029Z,101791.41
2022-08-12T08:07:33.108Z,101793.31
2022-08-12T08:10:03.892Z,101787.25
2022-08-12T08:12:49.884Z,101789.13
2022-08-12T08:15:17.463Z,101773.41
2022-08-12T08:18:02.841Z,101778.91
2022-08-12T08:20:36.260Z,101781.66
2022-08-12T08:23:07.996Z,101769.91
2022-08-12T08:25:39.038Z,101767.88
2022-08-12T08:28:11.254Z,101765.66
2022-08-12T08:30:47.843Z,101766.00
2022-08-12T08:34:01.528Z,101769.81
2022-08-12T08:36:12.786Z,101761.56
2022-08-12T08:38:53.111Z,101767.38
2022-08-12T08:42:16.165Z,101763.31
2022-08-12T08:44:36.563Z,101759.25
2022-08-12T08:47:06.019Z,101760.75
2022-08-12T08:49:37.443Z,101755.78
2022-08-12T08:52:11.257Z,101747.72
2022-08-12T08:54:39.546Z,101747.84
2022-08-12T08:57:08.769Z,101738.91
2022-08-12T08:59:36.362Z,101739.44
2022-08-12T09:02:04.091Z,101755.06
2022-08-12T09:05:11.973Z,101744.75
2022-08-12T09:07:58.367Z,101739.97
2022-08-12T09:13:23.629Z,101733.53
2022-08-12T09:15:59.303Z,101721.31
2022-08-12T09:18:33.365Z,101739.09
2022-08-12T09:21:02.186Z,101730.88
2022-08-12T09:24:01.179Z,101728.59
2022-08-12T09:26:19.142Z,101719.78
2022-08-12T09:28:53.008Z,101719.69
2022-08-12T09:32:04.180Z,101724.25
2022-08-12T09:34:25.635Z,101712.34
2022-08-12T09:37:02.855Z,101720.06
2022-08-12T09:40:02.487Z,101704.34
2022-08-12T09:43:11.104Z,101710.56
2022-08-12T09:46:06.693Z,101710.16
2022-08-12T09:48:34.973Z,101700.38
2022-08-12T09:51:10.790Z,101681.72
2022-08-12T09:53:45.713Z,101689.13
2022-08-12T09:57:02.823Z,101693.91
2022-08-12T10:00:13.079Z,101684.22
2022-08-12T10:02:43.900Z,101676.03
2022-08-12T10:04:56.516Z,101679.69
2022-08-12T10:07:24.891Z,101676.19
2022-08-12T10:09:58.789Z,101664.56
2022-08-12T10:13:07.769Z,101666.03
2022-08-12T10:16:00.678Z,101657.69
2022-08-12T10:18:26.267Z,101652.34
2022-08-12T10:20:53.543Z,101649.34
2022-08-12T10:23:20.470Z,101650.13
2022-08-12T10:26:37.030Z,101656.31
2022-08-12T10:30:38.784Z,101647.81
2022-08-12T10:32:45.360Z,101637.41
2022-08-12T10:35:15.494Z,101643.75
2022-08-12T10:38:39.127Z,101641.91
2022-08-12T10:40:34.288Z,101635.88
2022-08-12T10:43:23.586Z,101626.91
2022-08-12T10:45:51.742Z,101635.97
2022-08-12T10:48:26.975Z,101626.19
2022-08-12T10:51:51.493Z,101623.50
2022-08-12T10:54:00.633Z,101631.75
2022-08-12T10:56:34.490Z,101619.13
2022-08-12T10:59:05.627Z,101617.13
2022-08-12T11:04:18.824Z,101622.75
2022-08-12T11:04:39.309Z,101618.13
2022-08-12T11:08:33.821Z,101610.34
2022-08-12T11:10:02.615Z,101629.22
2022-08-12T11:12:57.257Z,101613.91
2022-08-12T11:16:04.346Z,101624.41
2022-08-12T11:18:18.631Z,101607.84
2022-08-12T11:20:48.506Z,101611.47
2022-08-12T11:23:25.305Z,101625.94
2022-08-12T11:26:06.736Z,101621.88
2022-08-12T11:28:37.067Z,101625.63
2022-08-12T11:31:12.378Z,101623.75
2022-08-12T11:34:05.952Z,101606.38
2022-08-12T11:36:30.972Z,101607.25
2022-08-12T11:38:58.091Z,101607.66
2022-08-12T11:41:30.910Z,101599.41
2022-08-12T11:44:36.749Z,101599.09
2022-08-12T11:46:54.498Z,101602.47
2022-08-12T11:49:32.066Z,101589.66
2022-08-12T11:52:04.155Z,101585.88
2022-08-12T11:54:39.220Z,101580.50
2022-08-12T11:58:07.613Z,101573.34
2022-08-12T12:02:53.735Z,101571.28
2022-08-12T12:05:21.061Z,101570.13
2022-08-12T12:08:40.430Z,101568.84
2022-08-12T12:10:42.665Z,101564.75
2022-08-12T12:13:11.707Z,101576.59
2022-08-12T12:15:50.393Z,101563.31
2022-08-12T12:18:30.854Z,101565.84
2022-08-12T12:21:01.696Z,101573.75
2022-08-12T12:23:36.378Z,101554.78
2022-08-12T12:26:08.246Z,101554.16
2022-08-12T12:28:39.761Z,101540.84
2022-08-12T12:31:14.972Z,101549.06
2022-08-12T12:33:57.715Z,101544.28
2022-08-12T12:36:30.070Z,101546.25
2022-08-12T12:38:58.464Z,101542.41
2022-08-12T12:42:43.423Z,101551.31
2022-08-12T12:47:28.918Z,101553.81
2022-08-12T12:49:53.925Z,101562.25
2022-08-12T12:52:21.860Z,101555.75
2022-08-12T12:54:58.682Z,101565.13
2022-08-12T12:57:36.306Z,101567.03
2022-08-12T13:00:15.264Z,101577.44
2022-08-12T13:02:52.864Z,101569.91
2022-08-12T13:05:42.615Z,101563.84
2022-08-12T13:08:39.864Z,101551.88
2022-08-12T13:11:07.805Z,101552.69
2022-08-12T13:14:07.187Z,101550.47
2022-08-12T13:16:26.629Z,101542.34
2022-08-12T13:18:54.881Z,101545.97
2022-08-12T13:21:33.505Z,101549.78
2022-08-12T13:24:10.290Z,101547.97
2022-08-12T13:26:40.631Z,101558.63
2022-08-12T13:29:11.146Z,101563.44
2022-08-12T13:32:17.397Z,101551.56
2022-08-12T13:34:34.415Z,101553.22
2022-08-12T13:37:09.010Z,101553.44
2022-08-12T13:39:39.468Z,101554.66
2022-08-12T13:42:14.331Z,101564.84
2022-08-12T13:44:42.510Z,101553.75
2022-08-12T13:47:18.314Z,101562.41
2022-08-12T13:49:54.417Z,101558.84
2022-08-12T13:52:23.702Z,101551.53
2022-08-12T13:54:56.046Z,101549.19
2022-08-12T13:57:26.743Z,101541.13
2022-08-12T13:59:55.373Z,101536.94
2022-08-12T14:02:27.507Z,101524.19
2022-08-12T14:04:56.599Z,101523.53
2022-08-12T14:07:26.264Z,101529.69
2022-08-12T14:10:16.262Z,101525.72
2022-08-12T14:12:54.544Z,101526.84
2022-08-12T14:15:37.186Z,101523.34
2022-08-12T14:18:13.110Z,101518.16
2022-08-12T14:20:51.827Z,101508.28
2022-08-12T14:24:04.638Z,101513.09
2022-08-12T14:26:12.241Z,101513.09
2022-08-12T14:28:45.140Z,101517.47
2022-08-12T14:31:29.622Z,101502.56
2022-08-12T14:34:00.009Z,101510.16
2022-08-12T14:36:32.469Z,101506.63
2022-08-12T14:39:00.055Z,101499.88
2022-08-12T14:41:36.916Z,101498.34
2022-08-12T14:44:57.620Z,101508.09
2022-08-12T14:47:07.737Z,101511.28
2022-08-12T14:50:33.540Z,101504.25
2022-08-12T14:53:50.684Z,101517.06
2022-08-12T14:58:02.665Z,101481.56
2022-08-12T15:00:52.268Z,101491.97
2022-08-12T15:03:52.988Z,101479.44
2022-08-12T15:06:44.581Z,101483.28
2022-08-12T15:09:06.510Z,101476.72
2022-08-12T15:11:54.792Z,101478.03
2022-08-12T15:14:30.093Z,101482.50
2022-08-12T15:17:00.771Z,101484.16
2022-08-12T15:20:11.575Z,101468.16
2022-08-12T15:22:37.726Z,101470.03
2022-08-12T15:25:07.878Z,101459.25
2022-08-12T15:28:03.876Z,101463.97
2022-08-12T15:30:31.505Z,101452.47
2022-08-12T15:32:59.269Z,101458.63
2022-08-12T15:35:38.089Z,101445.53
2022-08-12T15:38:21.204Z,101452.13
2022-08-12T15:40:51.185Z,101460.25
2022-08-12T15:43:56.967Z,101452.31
2022-08-12T15:46:15.269Z,101455.22
2022-08-12T15:48:49.077Z,101453.31
2022-08-12T15:51:58.292Z,101455.00
2022-08-12T15:54:35.180Z,101461.47
2022-08-12T15:57:10.844Z,101458.28
2022-08-12T16:00:00.678Z,101457.97
2022-08-12T16:02:50.083Z,101453.69
2022-08-12T16:06:11.253Z,101455.78
2022-08-12T16:08:19.847Z,101449.47
2022-08-12T16:10:53.117Z,101447.16
2022-08-12T16:13:32.358Z,101460.06
2022-08-12T16:16:23.025Z,101454.53
2022-08-12T16:18:57.371Z,101454.28
2022-08-12T16:21:51.181Z,101446.78
2022-08-12T16:24:18.551Z,101451.34
2022-08-12T16:26:51.314Z,101447.78
2022-08-12T16:29:38.514Z,101449.53
2022-08-12T16:32:24.623Z,101457.22
2022-08-12T16:35:00.806Z,101462.44
2022-08-12T16:38:25.684Z,101455.72
2022-08-12T16:40:24.312Z,101464.88
2022-08-12T16:43:02.208Z,101444.06
2022-08-12T16:46:23.248Z,101454.75
2022-08-12T16:48:34.102Z,101449.09
2022-08-12T16:51:10.310Z,101452.50
2022-08-12T16:53:45.166Z,101453.63
2022-08-12T16:56:17.298Z,101443.91
2022-08-12T16:58:46.962Z,101441.75
2022-08-12T17:01:16.321Z,101437.94
2022-08-12T17:04:04.666Z,101438.53
2022-08-12T17:06:35.883Z,101439.81
2022-08-12T17:09:08.839Z,101426.81
2022-08-12T17:11:49.226Z,101432.47
2022-08-12T17:14:23.190Z,101431.81
2022-08-12T17:16:52.244Z,101435.41
2022-08-12T17:22:12.023Z,101429.38
2022-08-12T17:24:44.122Z,101432.94
2022-08-12T17:27:22.170Z,101429.72
2022-08-12T17:30:01.894Z,101418.56
2022-08-12T17:32:33.393Z,101429.72
2022-08-12T17:35:20.216Z,101424.53
2022-08-12T17:37:50.992Z,101423.72
2022-08-12T17:40:36.165Z,101428.47
2022-08-12T17:43:55.558Z,101433.63
2022-08-12T17:45:59.101Z,101428.31
2022-08-12T17:48:34.369Z,101431.91
2022-08-12T17:51:15.630Z,101426.84
2022-08-12T17:54:05.996Z,101423.94
2022-08-12T17:56:37.291Z,101430.63
2022-08-12T17:59:12.457Z,101437.38
2022-08-12T18:01:45.327Z,101430.75
2022-08-12T18:04:21.992Z,101422.06
2022-08-12T18:06:55.868Z,101425.34
2022-08-12T18:09:31.831Z,101438.94
2022-08-12T18:12:24.763Z,101419.06
2022-08-12T18:15:01.099Z,101440.94
2022-08-12T18:17:31.026Z,101443.06
2022-08-12T18:20:07.843Z,101441.13
2022-08-12T18:22:36.339Z,101452.31
2022-08-12T18:26:15.609Z,101440.94
2022-08-12T18:28:15.672Z,101457.50
2022-08-12T18:30:52.426Z,101443.69
2022-08-12T18:33:24.850Z,101441.28
2022-08-12T18:35:55.576Z,101452.41
2022-08-12T18:38:25.523Z,101449.78
2022-08-12T18:41:22.034Z,101456.88
2022-08-12T18:44:02.513Z,101457.88
2022-08-12T18:46:55.567Z,101456.25
2022-08-12T18:49:38.685Z,101461.53
2022-08-12T18:52:11.652Z,101457.13
2022-08-12T18:54:49.083Z,101465.00
2022-08-12T18:58:07.467Z,101467.72
2022-08-12T19:00:21.229Z,101469.81
2022-08-12T19:02:54.781Z,101476.97
2022-08-12T19:05:53.070Z,101484.03
2022-08-12T19:08:13.903Z,101485.06
2022-08-12T19:10:50.091Z,101475.56
2022-08-12T19:13:39.546Z,101484.53
2022-08-12T19:16:11.222Z,101473.75
2022-08-12T19:18:44.724Z,101481.56
2022-08-12T19:21:16.353Z,101488.59
2022-08-12T19:24:04.823Z,101478.75
2022-08-12T19:26:36.103Z,101488.97
2022-08-12T19:29:07.442Z,101485.38
2022-08-12T19:31:57.581Z,101491.72
2022-08-12T19:38:03.230Z,101479.81
2022-08-12T19:40:20.611Z,101489.22
2022-08-12T19:43:13.410Z,101490.84
2022-08-12T19:45:56.317Z,101477.91
2022-08-12T19:48:33.074Z,101475.16
2022-08-12T19:51:09.366Z,101481.94
2022-08-12T19:53:57.745Z,101474.84
2022-08-12T19:56:27.971Z,101487.88
2022-08-12T19:59:18.755Z,101483.38
2022-08-12T20:02:01.613Z,101490.16
2022-08-12T20:04:37.313Z,101492.25
2022-08-12T20:07:09.110Z,101493.53
2022-08-12T20:09:52.919Z,101492.06
2022-08-12T20:12:30.897Z,101486.69
2022-08-12T20:15:05.178Z,101488.16
2022-08-12T20:17:36.486Z,101496.53
2022-08-12T20:20:21.105Z,101501.03
2022-08-12T20:22:57.538Z,101497.97
2022-08-12T20:25:28.520Z,101504.91
2022-08-12T20:28:12.464Z,101508.09
2022-08-12T20:30:53.309Z,101511.50
2022-08-12T20:33:32.760Z,101517.59
2022-08-12T20:36:41.399Z,101507.69
2022-08-12T20:39:34.199Z,101513.47
2022-08-12T20:41:58.777Z,101511.69
2022-08-12T20:44:26.763Z,101499.53
2022-08-12T20:47:06.221Z,101495.81
2022-08-12T20:49:45.574Z,101498.19
2022-08-12T20:52:18.330Z,101497.69
2022-08-12T20:54:52.989Z,101491.38
2022-08-12T20:57:23.937Z,101491.50
2022-08-12T20:59:52.743Z,101494.88
2022-08-12T21:02:24.554Z,101493.06
2022-08-12T21:05:20.393Z,101504.97
2022-08-12T21:07:51.982Z,101504.94
2022-08-12T21:10:20.934Z,101511.34
2022-08-12T21:12:48.817Z,101503.84
2022-08-12T21:15:23.961Z,101511.38
2022-08-12T21:18:10.787Z,101510.16
2022-08-12T21:20:54.550Z,101514.97
2022-08-12T21:23:22.880Z,101510.22
2022-08-12T21:25:56.431Z,101513.09
2022-08-12T21:28:27.726Z,101516.25
2022-08-12T21:32:35.209Z,101507.66
2022-08-12T21:34:07.585Z,101515.19
2022-08-12T21:36:48.070Z,101518.66
2022-08-12T21:39:22.849Z,101520.97
2022-08-12T21:41:54.805Z,101521.06
2022-08-12T21:45:44.558Z,101517.75
2022-08-12T21:47:21.555Z,101536.41
2022-08-12T21:50:04.117Z,101514.13
2022-08-12T21:52:40.916Z,101509.53
2022-08-12T21:55:18.404Z,101507.72
2022-08-12T21:57:53.861Z,101508.34
2022-08-12T22:00:33.160Z,101512.78
2022-08-12T22:04:02.754Z,101514.72
2022-08-12T22:06:20.303Z,101533.16
2022-08-12T22:08:57.812Z,101535.19
2022-08-12T22:11:41.122Z,101522.41
2022-08-12T22:14:10.239Z,101523.84
2022-08-12T22:16:47.061Z,101527.19
2022-08-12T22:19:19.322Z,101530.41
2022-08-12T22:21:53.067Z,101534.03
2022-08-12T22:24:25.930Z,101526.94
2022-08-12T22:26:55.862Z,101531.91
2022-08-12T22:29:42.740Z,101540.09
2022-08-12T22:32:11.923Z,101539.09
2022-08-12T22:34:40.149Z,101528.16
2022-08-12T22:37:11.200Z,101528.75
2022-08-12T22:39:46.980Z,101534.22
2022-08-12T22:42:35.868Z,101535.03
2022-08-12T22:45:23.284Z,101532.69
2022-08-12T22:47:54.998Z,101534.63
2022-08-12T22:50:28.556Z,101530.56
2022-08-12T22:53:15.540Z,101517.22
2022-08-12T22:55:59.146Z,101522.16
2022-08-12T22:58:33.944Z,101515.69
2022-08-12T23:01:02.420Z,101526.63
2022-08-12T23:03:48.646Z,101529.94
2022-08-12T23:06:24.049Z,101529.94
2022-08-12T23:08:55.327Z,101523.47
2022-08-12T23:11:23.717Z,101532.78
2022-08-12T23:14:01.899Z,101523.06
2022-08-12T23:16:34.017Z,101526.91
2022-08-12T23:19:10.851Z,101526.69
2022-08-12T23:22:05.005Z,101516.94
2022-08-12T23:24:55.434Z,101521.16
2022-08-12T23:27:51.305Z,101527.22
2022-08-12T23:30:32.104Z,101524.53
2022-08-12T23:33:19.835Z,101530.09
2022-08-12T23:36:02.591Z,101526.13
2022-08-12T23:38:33.107Z,101525.59
2022-08-12T23:41:03.592Z,101525.41
2022-08-12T23:43:40.995Z,101529.31
2022-08-12T23:46:19.201Z,101531.31
2022-08-12T23:48:50.410Z,101528.88
2022-08-12T23:51:25.147Z,101523.81
2022-08-12T23:54:02.594Z,101523.81
2022-08-12T23:56:32.811Z,101526.09
2022-08-12T23:59:06.492Z,101531.25
